Zero Trim — WCY3091 — position and weather

sailwx.info

Track history (hours):
 
Tides and Currents Weather Stations Pressure Air Temp Water Temp Dewpoint Dewpoint Depression Visibility Wind Speed Wind Dir Waves Ship Positions

Zero Trim

Owner: TRIMBLE, ROBERT M, BELLEVUE, WA. More information available from US FCC via Universal Licensing System and Coast Guard Vessel Documentation Center.

Last reported at 2015-Jul-28 22:55 UTC. Time now 2015-Jul-29 15:54 UTC.
Position N 47°39' W 122°20'.

Length 23 m.

Type: Pleasure craft. MMSI: 366747760.

Date/timePositionNaut miles runAvg speedWind from/ knotsBaromVisibWave heightAir tempDewpointWater temp
2015-Jul-28 22:55N 47°39' W 122°20'2 5.5
2015-Jul-28 22:33N 47°40' W 122°23'0 6.0
2015-Jul-28 22:30N 47°40' W 122°23'1 0.5
2015-Jul-28 21:31N 47°40' W 122°24'0 2.5
2015-Jul-28 21:29N 47°40' W 122°24'0 0.5
2015-Jul-28 20:32N 47°40' W 122°24'0 4.6
2015-Jul-28 20:29N 47°40' W 122°25'9 9.7
2015-Jul-28 19:33N 47°49' W 122°28'4310.6
2015-Jul-28 15:33N 48°31' W 122°37'1 0.8
2015-Jul-28 14:28N 48°31' W 122°36'0 0.0
2015-Jul-28 13:28N 48°31' W 122°36'0 0.0
2015-Jul-28 12:28N 48°31' W 122°36'0 0.0
2015-Jul-28 11:22N 48°31' W 122°36'0 0.0
2015-Jul-28 10:22N 48°31' W 122°36'0 0.0
2015-Jul-28 09:28N 48°31' W 122°36'0 0.0
2015-Jul-28 08:28N 48°31' W 122°36'0 0.0
2015-Jul-28 07:28N 48°31' W 122°36'0 0.0
2015-Jul-28 06:28N 48°31' W 122°36'0 0.0
2015-Jul-28 05:28N 48°31' W 122°36'0 0.0
2015-Jul-28 04:28N 48°31' W 122°36'0 0.0
2015-Jul-28 03:28N 48°31' W 122°36'0 0.0
2015-Jul-28 02:28N 48°31' W 122°36'0 0.0
2015-Jul-28 01:28N 48°31' W 122°36'0 0.0
2015-Jul-28 00:28N 48°31' W 122°36'0 0.0
2015-Jul-27 23:28N 48°31' W 122°36'0 0.0
2015-Jul-27 22:22N 48°31' W 122°36'0 0.0
2015-Jul-27 21:28N 48°31' W 122°36'0 0.0
2015-Jul-27 20:28N 48°31' W 122°36'0 0.0
2015-Jul-27 19:28N 48°31' W 122°36'0 0.0
2015-Jul-27 18:28N 48°31' W 122°36'0 0.0
2015-Jul-27 17:28N 48°31' W 122°36'0 0.0
2015-Jul-27 16:28N 48°31' W 122°36'0 0.0
2015-Jul-27 15:22N 48°31' W 122°36'0 0.0
2015-Jul-27 14:28N 48°31' W 122°36'0 0.0
2015-Jul-27 13:22N 48°31' W 122°36'0 0.0
2015-Jul-27 12:28N 48°31' W 122°36'0 0.0
2015-Jul-27 11:22N 48°31' W 122°36'0 0.0
2015-Jul-27 10:28N 48°31' W 122°36'0 0.0
2015-Jul-27 09:28N 48°31' W 122°36'0 0.0
2015-Jul-27 08:10N 48°31' W 122°36'0 0.0
2015-Jul-27 07:28N 48°31' W 122°36'0 0.0
2015-Jul-27 06:28N 48°31' W 122°36'0 0.0
2015-Jul-27 05:22N 48°31' W 122°36'0 0.0
2015-Jul-27 04:22N 48°31' W 122°36'0 0.0
2015-Jul-27 03:16N 48°31' W 122°36'0 0.0
2015-Jul-27 02:28N 48°31' W 122°36'0 0.0
2015-Jul-27 01:22N 48°31' W 122°36'0 0.0
2015-Jul-27 00:26N 48°31' W 122°36'0 0.0
2015-Jul-26 23:32N 48°31' W 122°36'0 0.0
2015-Jul-26 22:29N 48°31' W 122°36'0 0.0
2015-Jul-26 21:29N 48°31' W 122°36'0 0.0
2015-Jul-26 20:29N 48°31' W 122°36'1 1.0
2015-Jul-26 19:33N 48°31' W 122°37'1110.9
2015-Jul-26 18:33N 48°35' W 122°53'5 8.2
2015-Jul-26 17:59N 48°36' W 122°60'6 1.2
2015-Jul-26 12:49N 48°37' W 123°09'0 0.0
2015-Jul-25 22:37N 48°37' W 123°09'0 0.0
2015-Jul-25 21:37N 48°37' W 123°09'0 0.0
2015-Jul-25 21:22N 48°37' W 123°09'0 0.0
2015-Jul-25 06:40N 48°37' W 123°09'  
2015-Jul-22 19:32N 48°33' W 122°50'10 9.8
2015-Jul-22 18:33N 48°31' W 122°36'0 0.4
2015-Jul-22 17:24N 48°31' W 122°36'0 0.0
2015-Jul-22 16:30N 48°31' W 122°36'0 0.0
2015-Jul-22 15:31N 48°31' W 122°36'0 0.0
2015-Jul-22 14:31N 48°31' W 122°36'0 0.0
2015-Jul-22 13:31N 48°31' W 122°36'0 0.0
2015-Jul-22 12:31N 48°31' W 122°36'0 0.0
2015-Jul-22 11:25N 48°31' W 122°36'0 0.0
2015-Jul-22 10:31N 48°31' W 122°36'0 0.0
2015-Jul-22 09:31N 48°31' W 122°36'0 0.0
2015-Jul-22 08:31N 48°31' W 122°36'0 0.0
2015-Jul-22 07:25N 48°31' W 122°36'0 0.0
2015-Jul-22 06:31N 48°31' W 122°36'0 0.0
2015-Jul-22 05:31N 48°31' W 122°36'0 0.0
2015-Jul-22 04:31N 48°31' W 122°36'0 0.0
2015-Jul-22 03:31N 48°31' W 122°36'0 0.0
2015-Jul-22 02:25N 48°31' W 122°36'0 0.0
2015-Jul-22 01:31N 48°31' W 122°36'0 0.0
2015-Jul-22 00:31N 48°31' W 122°36'0 0.0
2015-Jul-21 23:31N 48°31' W 122°36'0 0.0
2015-Jul-21 22:31N 48°31' W 122°36'0 0.0
2015-Jul-21 21:31N 48°31' W 122°36'0 0.0
2015-Jul-21 20:31N 48°31' W 122°36'0 0.0
2015-Jul-21 19:29N 48°31' W 122°36'0 0.0
2015-Jul-21 18:23N 48°31' W 122°36'0 0.0
2015-Jul-21 17:31N 48°31' W 122°36'0 0.0
2015-Jul-21 16:31N 48°31' W 122°36'0 0.0
2015-Jul-21 15:31N 48°31' W 122°36'0 0.0
2015-Jul-21 14:22N 48°31' W 122°36'0 0.0
2015-Jul-21 13:28N 48°31' W 122°36'0 0.0
2015-Jul-21 12:28N 48°31' W 122°36'0 0.0
2015-Jul-21 11:22N 48°31' W 122°36'0 0.0
2015-Jul-21 10:28N 48°31' W 122°36'0 0.0
2015-Jul-21 09:28N 48°31' W 122°36'0 0.0
2015-Jul-21 08:28N 48°31' W 122°36'0 0.0
2015-Jul-21 07:22N 48°31' W 122°36'0 0.0
2015-Jul-21 06:28N 48°31' W 122°36'0 0.0
2015-Jul-21 05:28N 48°31' W 122°36'0 0.0
2015-Jul-21 04:28N 48°31' W 122°36'0 0.0
2015-Jul-21 03:28N 48°31' W 122°36'0 0.0
2015-Jul-21 02:28N 48°31' W 122°36'0 0.0
2015-Jul-21 01:33N 48°31' W 122°36'0 0.0
2015-Jul-21 00:27N 48°31' W 122°36'0 0.0
2015-Jul-20 23:33N 48°31' W 122°36'0 0.0
2015-Jul-20 22:33N 48°31' W 122°36'0 0.0
2015-Jul-20 21:33N 48°31' W 122°36'0 0.0
2015-Jul-20 20:33N 48°31' W 122°36'0 0.0
2015-Jul-20 19:33N 48°31' W 122°36'0 0.0
2015-Jul-20 18:33N 48°31' W 122°36'0 0.0
2015-Jul-20 17:28N 48°31' W 122°36'0 0.0
2015-Jul-20 16:28N 48°31' W 122°36'0 0.0
2015-Jul-20 15:33N 48°31' W 122°36'0 0.0
2015-Jul-20 14:33N 48°31' W 122°36'0 0.0
2015-Jul-20 13:33N 48°31' W 122°36'0 0.0
2015-Jul-20 12:31N 48°31' W 122°36'0 0.0
2015-Jul-20 11:31N 48°31' W 122°36'0 0.0
2015-Jul-20 10:25N 48°31' W 122°36'0 0.0
2015-Jul-20 09:34N 48°31' W 122°36'0 0.0
2015-Jul-20 08:33N 48°31' W 122°36'0 0.0
2015-Jul-20 07:33N 48°31' W 122°36'0 0.0
2015-Jul-20 06:31N 48°31' W 122°36'0 0.0
2015-Jul-20 05:34N 48°31' W 122°36'0 0.0
2015-Jul-20 04:28N 48°31' W 122°36'0 0.0
2015-Jul-20 03:34N 48°31' W 122°36'0 0.0
2015-Jul-20 02:22N 48°31' W 122°36'0 0.0
2015-Jul-20 01:28N 48°31' W 122°36'0 0.0
2015-Jul-20 00:28N 48°31' W 122°36'0 0.0
2015-Jul-19 23:28N 48°31' W 122°36'0 0.0
2015-Jul-19 22:28N 48°31' W 122°36'0 0.0
2015-Jul-19 21:32N 48°31' W 122°36'0 0.0
2015-Jul-19 20:32N 48°31' W 122°36'1 0.9
2015-Jul-19 19:33N 48°31' W 122°37'1010.0
2015-Jul-19 18:32N 48°34' W 122°52'12 5.3
2015-Jul-19 16:19N 48°37' W 123°09'  
Track history (hours):
 
Tides and Currents Weather Stations Pressure Air Temp Water Temp Dewpoint Dewpoint Depression Visibility Wind Speed Wind Dir Waves Ship Positions

Zero Trim

Owner: TRIMBLE, ROBERT M, BELLEVUE, WA. More information available from US FCC via Universal Licensing System and Coast Guard Vessel Documentation Center.

Last reported at 2015-Jul-28 22:55 UTC. Time now 2015-Jul-29 15:54 UTC.
Position N 47°39' W 122°20'.

Length 23 m.

Type: Pleasure craft. MMSI: 366747760.

Date/timePositionNaut miles runAvg speedWind from/ knotsBaromVisibWave heightAir tempDewpointWater temp
2015-Jul-28 22:55N 47°39' W 122°20'2 5.5
2015-Jul-28 22:33N 47°40' W 122°23'0 6.0
2015-Jul-28 22:30N 47°40' W 122°23'1 0.5
2015-Jul-28 21:31N 47°40' W 122°24'0 2.5
2015-Jul-28 21:29N 47°40' W 122°24'0 0.5
2015-Jul-28 20:32N 47°40' W 122°24'0 4.6
2015-Jul-28 20:29N 47°40' W 122°25'9 9.7
2015-Jul-28 19:33N 47°49' W 122°28'4310.6
2015-Jul-28 15:33N 48°31' W 122°37'1 0.8
2015-Jul-28 14:28N 48°31' W 122°36'0 0.0
2015-Jul-28 13:28N 48°31' W 122°36'0 0.0
2015-Jul-28 12:28N 48°31' W 122°36'0 0.0
2015-Jul-28 11:22N 48°31' W 122°36'0 0.0
2015-Jul-28 10:22N 48°31' W 122°36'0 0.0
2015-Jul-28 09:28N 48°31' W 122°36'0 0.0
2015-Jul-28 08:28N 48°31' W 122°36'0 0.0
2015-Jul-28 07:28N 48°31' W 122°36'0 0.0
2015-Jul-28 06:28N 48°31' W 122°36'0 0.0
2015-Jul-28 05:28N 48°31' W 122°36'0 0.0
2015-Jul-28 04:28N 48°31' W 122°36'0 0.0
2015-Jul-28 03:28N 48°31' W 122°36'0 0.0
2015-Jul-28 02:28N 48°31' W 122°36'0 0.0
2015-Jul-28 01:28N 48°31' W 122°36'0 0.0
2015-Jul-28 00:28N 48°31' W 122°36'0 0.0
2015-Jul-27 23:28N 48°31' W 122°36'0 0.0
2015-Jul-27 22:22N 48°31' W 122°36'0 0.0
2015-Jul-27 21:28N 48°31' W 122°36'0 0.0
2015-Jul-27 20:28N 48°31' W 122°36'0 0.0
2015-Jul-27 19:28N 48°31' W 122°36'0 0.0
2015-Jul-27 18:28N 48°31' W 122°36'0 0.0
2015-Jul-27 17:28N 48°31' W 122°36'0 0.0
2015-Jul-27 16:28N 48°31' W 122°36'0 0.0
2015-Jul-27 15:22N 48°31' W 122°36'0 0.0
2015-Jul-27 14:28N 48°31' W 122°36'0 0.0
2015-Jul-27 13:22N 48°31' W 122°36'0 0.0
2015-Jul-27 12:28N 48°31' W 122°36'0 0.0
2015-Jul-27 11:22N 48°31' W 122°36'0 0.0
2015-Jul-27 10:28N 48°31' W 122°36'0 0.0
2015-Jul-27 09:28N 48°31' W 122°36'0 0.0
2015-Jul-27 08:10N 48°31' W 122°36'0 0.0
2015-Jul-27 07:28N 48°31' W 122°36'0 0.0
2015-Jul-27 06:28N 48°31' W 122°36'0 0.0
2015-Jul-27 05:22N 48°31' W 122°36'0 0.0
2015-Jul-27 04:22N 48°31' W 122°36'0 0.0
2015-Jul-27 03:16N 48°31' W 122°36'0 0.0
2015-Jul-27 02:28N 48°31' W 122°36'0 0.0
2015-Jul-27 01:22N 48°31' W 122°36'0 0.0
2015-Jul-27 00:26N 48°31' W 122°36'0 0.0
2015-Jul-26 23:32N 48°31' W 122°36'0 0.0
2015-Jul-26 22:29N 48°31' W 122°36'0 0.0
2015-Jul-26 21:29N 48°31' W 122°36'0 0.0
2015-Jul-26 20:29N 48°31' W 122°36'1 1.0
2015-Jul-26 19:33N 48°31' W 122°37'1110.9
2015-Jul-26 18:33N 48°35' W 122°53'5 8.2
2015-Jul-26 17:59N 48°36' W 122°60'6 1.2
2015-Jul-26 12:49N 48°37' W 123°09'0 0.0
2015-Jul-25 22:37N 48°37' W 123°09'0 0.0
2015-Jul-25 21:37N 48°37' W 123°09'0 0.0
2015-Jul-25 21:22N 48°37' W 123°09'0 0.0
2015-Jul-25 06:40N 48°37' W 123°09'  
2015-Jul-22 19:32N 48°33' W 122°50'10 9.8
2015-Jul-22 18:33N 48°31' W 122°36'0 0.4
2015-Jul-22 17:24N 48°31' W 122°36'0 0.0
2015-Jul-22 16:30N 48°31' W 122°36'0 0.0
2015-Jul-22 15:31N 48°31' W 122°36'0 0.0
2015-Jul-22 14:31N 48°31' W 122°36'0 0.0
2015-Jul-22 13:31N 48°31' W 122°36'0 0.0
2015-Jul-22 12:31N 48°31' W 122°36'0 0.0
2015-Jul-22 11:25N 48°31' W 122°36'0 0.0
2015-Jul-22 10:31N 48°31' W 122°36'0 0.0
2015-Jul-22 09:31N 48°31' W 122°36'0 0.0
2015-Jul-22 08:31N 48°31' W 122°36'0 0.0
2015-Jul-22 07:25N 48°31' W 122°36'0 0.0
2015-Jul-22 06:31N 48°31' W 122°36'0 0.0
2015-Jul-22 05:31N 48°31' W 122°36'0 0.0
2015-Jul-22 04:31N 48°31' W 122°36'0 0.0
2015-Jul-22 03:31N 48°31' W 122°36'0 0.0
2015-Jul-22 02:25N 48°31' W 122°36'0 0.0
2015-Jul-22 01:31N 48°31' W 122°36'0 0.0
2015-Jul-22 00:31N 48°31' W 122°36'0 0.0
2015-Jul-21 23:31N 48°31' W 122°36'0 0.0
2015-Jul-21 22:31N 48°31' W 122°36'0 0.0
2015-Jul-21 21:31N 48°31' W 122°36'0 0.0
2015-Jul-21 20:31N 48°31' W 122°36'0 0.0
2015-Jul-21 19:29N 48°31' W 122°36'0 0.0
2015-Jul-21 18:23N 48°31' W 122°36'0 0.0
2015-Jul-21 17:31N 48°31' W 122°36'0 0.0
2015-Jul-21 16:31N 48°31' W 122°36'0 0.0
2015-Jul-21 15:31N 48°31' W 122°36'0 0.0
2015-Jul-21 14:22N 48°31' W 122°36'0 0.0
2015-Jul-21 13:28N 48°31' W 122°36'0 0.0
2015-Jul-21 12:28N 48°31' W 122°36'0 0.0
2015-Jul-21 11:22N 48°31' W 122°36'0 0.0
2015-Jul-21 10:28N 48°31' W 122°36'0 0.0
2015-Jul-21 09:28N 48°31' W 122°36'0 0.0
2015-Jul-21 08:28N 48°31' W 122°36'0 0.0
2015-Jul-21 07:22N 48°31' W 122°36'0 0.0
2015-Jul-21 06:28N 48°31' W 122°36'0 0.0
2015-Jul-21 05:28N 48°31' W 122°36'0 0.0
2015-Jul-21 04:28N 48°31' W 122°36'0 0.0
2015-Jul-21 03:28N 48°31' W 122°36'0 0.0
2015-Jul-21 02:28N 48°31' W 122°36'0 0.0
2015-Jul-21 01:33N 48°31' W 122°36'0 0.0
2015-Jul-21 00:27N 48°31' W 122°36'0 0.0
2015-Jul-20 23:33N 48°31' W 122°36'0 0.0
2015-Jul-20 22:33N 48°31' W 122°36'0 0.0
2015-Jul-20 21:33N 48°31' W 122°36'0 0.0
2015-Jul-20 20:33N 48°31' W 122°36'0 0.0
2015-Jul-20 19:33N 48°31' W 122°36'0 0.0
2015-Jul-20 18:33N 48°31' W 122°36'0 0.0
2015-Jul-20 17:28N 48°31' W 122°36'0 0.0
2015-Jul-20 16:28N 48°31' W 122°36'0 0.0
2015-Jul-20 15:33N 48°31' W 122°36'0 0.0
2015-Jul-20 14:33N 48°31' W 122°36'0 0.0
2015-Jul-20 13:33N 48°31' W 122°36'0 0.0
2015-Jul-20 12:31N 48°31' W 122°36'0 0.0
2015-Jul-20 11:31N 48°31' W 122°36'0 0.0
2015-Jul-20 10:25N 48°31' W 122°36'0 0.0
2015-Jul-20 09:34N 48°31' W 122°36'0 0.0
2015-Jul-20 08:33N 48°31' W 122°36'0 0.0
2015-Jul-20 07:33N 48°31' W 122°36'0 0.0
2015-Jul-20 06:31N 48°31' W 122°36'0 0.0
2015-Jul-20 05:34N 48°31' W 122°36'0 0.0
2015-Jul-20 04:28N 48°31' W 122°36'0 0.0
2015-Jul-20 03:34N 48°31' W 122°36'0 0.0
2015-Jul-20 02:22N 48°31' W 122°36'0 0.0
2015-Jul-20 01:28N 48°31' W 122°36'0 0.0
2015-Jul-20 00:28N 48°31' W 122°36'0 0.0
2015-Jul-19 23:28N 48°31' W 122°36'0 0.0
2015-Jul-19 22:28N 48°31' W 122°36'0 0.0
2015-Jul-19 21:32N 48°31' W 122°36'0 0.0
2015-Jul-19 20:32N 48°31' W 122°36'1 0.9
2015-Jul-19 19:33N 48°31' W 122°37'1010.0
2015-Jul-19 18:32N 48°34' W 122°52'12 5.3
2015-Jul-19 16:19N 48°37' W 123°09'  

Dump ship's entire track history